Sign-in with your pilot id or email, or register

ICAO: LOWS Name / Country: Salzburg / Austria
Latitude: 47.7933 Longitude: 13.0043
Total Arrivals:
Strict Standards: Non-static method AirportData::getarrflights() should not be called statically, assuming $this from incompatible context in /var/www/customers/vh-7192/web/home/phpvms/core/templates/airport_info.tpl on line 18
21
Total Departures:
Strict Standards: Non-static method AirportData::getdeptflights() should not be called statically, assuming $this from incompatible context in /var/www/customers/vh-7192/web/home/phpvms/core/templates/airport_info.tpl on line 21
27
Latest Arrival: MTA602 (LHBP-LOWS) Tibor Berces Latest Departure: MTA603 (LOWS-LHBP) Laszlo Bartucz
Metar: LOWS 172250Z AUTO 33010KT 9999 FEW030 SCT040 BKN060 15/10 Q1021
More info

Charts for LOWS


NOTAM


Warning: file_get_contents(http://api.vateud.net/notams/LOWS.json): failed to open stream: Redirection limit reached, aborting in /var/www/customers/vh-7192/web/home/phpvms/core/common/NOTAMSData.class.php on line 18

Warning: Invalid argument supplied for foreach() in /var/www/customers/vh-7192/web/home/phpvms/core/common/NOTAMSData.class.php on line 22

Salzburg